Main page
METAR-TAF:

METAR-TAF

Airports :

Cataratas del Iguazú International Airport

Iguaçu, Argentina

latitude: 25-44S, longitude: 054-28W, elevation: 270 m

Current weather observation

The report was made 27 minutes ago, at 07:00 UTC
Calm wind
Temperature 2°C
Humidity 87%
Pressure 1026 hPa
Visibility 10 km or more
no clouds below 1500 m and no cumulonimbus

METAR: SARI 300700Z 00000KT CAVOK 02/00 Q1026

Time: 04:27 (07:27 UTC)

Forecast

The report was made 2 hours and 27 minutes ago, at 05:00 UTC
Forecast valid from 30 at 06 UTC to 31 at 06 UTC
Wind 2 kt from variable directions
Visibility 10 km or more
no clouds below 1500 m and no cumulonimbus

TAF: SARI 300500Z 3006/3106 VRB02KT CAVOK TX15/3019Z TN00/3011Z

Weather observations and forecasts of more than 4000 airports (METAR and TAF reports).

The available stations are represented by yellow and red dots on the map.

Hover mouse over dot to see the name of the station.

Then click to see weather observations and forecasts.

To change the map : click on the green buttons with a black cross to zoom in, on the green button with a dash to zoom out, or on the green arrows for adjacent maps.


METAR-TAF: